171250Z 21009KT 8000 BR OVC002 09/09 Q1010=

171130Z 1712/1721 21010KT 1400 BR OVC002 TEMPO 1712/1715 6000 TEMPO 1715/1721 8000 BKN006=

Aktuell METAR/TAF ESNU/UME

Källa: Luftfartsverket (aro.lfv.se)